createdAt,value
2018-02-15T00:01:54.483Z,71.70
2018-02-15T00:04:21.970Z,72.02
2018-02-15T00:06:49.451Z,72.51
2018-02-15T00:09:17.022Z,71.80
2018-02-15T00:11:44.565Z,71.87
2018-02-15T00:14:12.025Z,71.71
2018-02-15T00:16:39.610Z,71.64
2018-02-15T00:19:07.169Z,71.97
2018-02-15T00:21:34.674Z,72.20
2018-02-15T00:24:02.148Z,72.15
2018-02-15T00:26:29.634Z,72.26
2018-02-15T00:28:57.093Z,72.56
2018-02-15T00:31:24.567Z,72.51
2018-02-15T00:33:52.079Z,72.56
2018-02-15T00:36:19.532Z,72.60
2018-02-15T00:38:47.176Z,72.93
2018-02-15T00:41:14.674Z,72.86
2018-02-15T00:43:42.140Z,73.36
2018-02-15T00:46:09.682Z,73.50
2018-02-15T00:48:37.142Z,73.22
2018-02-15T00:51:04.690Z,73.04
2018-02-15T00:53:32.163Z,73.24
2018-02-15T00:55:59.790Z,73.46
2018-02-15T00:58:27.312Z,73.43
2018-02-15T01:00:54.797Z,73.18
2018-02-15T01:03:22.262Z,73.97
2018-02-15T01:05:49.818Z,74.28
2018-02-15T01:08:17.286Z,74.31
2018-02-15T01:10:44.807Z,73.77
2018-02-15T01:13:12.266Z,73.87
2018-02-15T01:15:39.722Z,74.14
2018-02-15T01:18:07.186Z,73.53
2018-02-15T01:20:34.650Z,73.89
2018-02-15T01:23:02.154Z,73.58
2018-02-15T01:25:29.621Z,73.45
2018-02-15T01:27:57.096Z,74.38
2018-02-15T01:30:24.754Z,74.63
2018-02-15T01:32:52.239Z,74.70
2018-02-15T01:35:19.710Z,74.91
2018-02-15T01:37:47.247Z,75.43
2018-02-15T01:40:14.725Z,75.20
2018-02-15T01:42:42.253Z,75.60
2018-02-15T01:45:09.787Z,75.93
2018-02-15T01:47:37.263Z,75.88
2018-02-15T01:50:04.771Z,75.91
2018-02-15T01:52:32.251Z,76.55
2018-02-15T01:54:59.703Z,76.23
2018-02-15T01:57:27.172Z,76.53
2018-02-15T01:59:54.629Z,76.54
2018-02-15T02:02:22.092Z,75.90
2018-02-15T02:04:49.555Z,76.52
2018-02-15T02:07:17.040Z,76.45
2018-02-15T02:09:44.506Z,76.48
2018-02-15T02:12:12.062Z,76.85
2018-02-15T02:14:39.517Z,76.80
2018-02-15T02:17:06.987Z,77.35
2018-02-15T02:19:34.438Z,77.57
2018-02-15T02:22:01.894Z,77.39
2018-02-15T02:24:29.376Z,77.17
2018-02-15T02:26:56.907Z,77.92
2018-02-15T02:29:24.377Z,77.04
2018-02-15T02:31:51.843Z,76.90
2018-02-15T02:34:19.360Z,77.17
2018-02-15T02:36:46.884Z,76.92
2018-02-15T02:39:14.352Z,77.14
2018-02-15T02:41:41.844Z,76.71
2018-02-15T02:44:09.300Z,77.00
2018-02-15T02:46:36.755Z,76.96
2018-02-15T02:49:04.223Z,76.64
2018-02-15T02:51:31.704Z,76.70
2018-02-15T02:53:59.150Z,76.90
2018-02-15T02:56:26.637Z,76.67
2018-02-15T02:58:54.096Z,76.90
2018-02-15T03:01:21.586Z,76.41
2018-02-15T03:03:49.073Z,76.08
2018-02-15T03:06:16.540Z,75.55
2018-02-15T03:08:44.008Z,75.41
2018-02-15T03:11:11.475Z,75.31
2018-02-15T03:13:38.941Z,74.95
2018-02-15T03:16:06.444Z,74.33
2018-02-15T03:18:33.914Z,74.87
2018-02-15T03:21:01.465Z,74.36
2018-02-15T03:23:28.930Z,75.09
2018-02-15T03:25:56.385Z,75.07
2018-02-15T03:28:23.850Z,75.57
2018-02-15T03:30:51.303Z,75.68
2018-02-15T03:33:18.831Z,76.07
2018-02-15T03:35:46.311Z,76.08
2018-02-15T03:38:13.782Z,76.84
2018-02-15T03:40:41.658Z,76.97
2018-02-15T03:43:09.137Z,77.04
2018-02-15T03:45:36.599Z,76.87
2018-02-15T03:48:04.099Z,76.92
2018-02-15T03:50:31.579Z,76.94
2018-02-15T03:52:59.033Z,77.40
2018-02-15T03:55:26.522Z,77.27
2018-02-15T03:57:53.983Z,76.89
2018-02-15T04:00:27.225Z,76.87
2018-02-15T04:02:54.700Z,76.92
2018-02-15T04:05:22.184Z,76.76
2018-02-15T04:07:49.647Z,76.43
2018-02-15T04:10:17.152Z,76.49
2018-02-15T04:12:44.636Z,76.73
2018-02-15T04:15:12.150Z,76.61
2018-02-15T04:17:39.673Z,76.75
2018-02-15T04:20:07.146Z,77.46
2018-02-15T04:22:34.614Z,77.15
2018-02-15T04:25:02.070Z,77.10
2018-02-15T04:27:29.557Z,77.88
2018-02-15T04:29:57.027Z,77.74
2018-02-15T04:32:24.496Z,78.28
2018-02-15T04:34:51.971Z,78.01
2018-02-15T04:37:19.428Z,77.75
2018-02-15T04:39:46.907Z,78.23
2018-02-15T04:42:14.391Z,78.20
2018-02-15T04:44:41.855Z,78.18
2018-02-15T04:47:09.334Z,78.04
2018-02-15T04:49:36.791Z,78.11
2018-02-15T04:52:04.274Z,78.37
2018-02-15T04:54:31.751Z,78.11
2018-02-15T04:56:59.223Z,78.64
2018-02-15T04:59:26.714Z,79.01
2018-02-15T05:01:54.182Z,78.92
2018-02-15T05:04:21.665Z,78.67
2018-02-15T05:06:49.142Z,79.18
2018-02-15T05:09:16.673Z,79.36
2018-02-15T05:11:44.141Z,79.61
2018-02-15T05:14:11.675Z,79.12
2018-02-15T05:16:39.332Z,79.28
2018-02-15T05:19:06.827Z,79.67
2018-02-15T05:21:34.295Z,79.67
2018-02-15T05:24:01.753Z,79.85
2018-02-15T05:26:29.223Z,79.79
2018-02-15T05:28:56.703Z,79.35
2018-02-15T05:31:25.115Z,79.51
2018-02-15T05:33:52.627Z,80.14
2018-02-15T05:36:20.102Z,79.40
2018-02-15T05:38:47.706Z,79.52
2018-02-15T05:41:15.204Z,78.98
2018-02-15T05:43:42.675Z,79.21
2018-02-15T05:46:10.136Z,79.42
2018-02-15T05:48:37.644Z,79.38
2018-02-15T05:51:05.099Z,78.93
2018-02-15T05:53:32.591Z,79.21
2018-02-15T05:56:00.094Z,79.46
2018-02-15T05:58:27.560Z,79.16
2018-02-15T06:00:55.046Z,79.43
2018-02-15T06:03:22.519Z,79.73
2018-02-15T06:05:49.998Z,79.64
2018-02-15T06:08:17.483Z,79.09
2018-02-15T06:10:44.992Z,79.31
2018-02-15T06:13:12.466Z,78.79
2018-02-15T06:15:39.950Z,79.38
2018-02-15T06:18:07.407Z,79.41
2018-02-15T06:20:34.866Z,79.49
2018-02-15T06:23:02.356Z,79.09
2018-02-15T06:25:30.000Z,79.31
2018-02-15T06:27:57.474Z,79.48
2018-02-15T06:30:26.123Z,78.84
2018-02-15T06:32:53.615Z,79.53
2018-02-15T06:35:21.098Z,77.65
2018-02-15T06:37:48.595Z,76.43
2018-02-15T06:40:16.059Z,75.44
2018-02-15T06:42:43.708Z,75.11
2018-02-15T06:45:11.217Z,75.21
2018-02-15T06:47:38.682Z,74.48
2018-02-15T06:50:06.160Z,73.95
2018-02-15T06:52:33.622Z,73.65
2018-02-15T06:55:01.096Z,73.57
2018-02-15T06:57:28.567Z,74.02
2018-02-15T06:59:56.073Z,73.11
2018-02-15T07:02:23.560Z,72.59
2018-02-15T07:04:51.018Z,72.15
2018-02-15T07:07:18.510Z,71.34
2018-02-15T07:09:45.983Z,70.53
2018-02-15T07:12:14.284Z,70.38
2018-02-15T07:14:41.783Z,70.58
2018-02-15T07:17:09.272Z,70.79
2018-02-15T07:19:36.748Z,70.99
2018-02-15T07:22:04.240Z,70.87
2018-02-15T07:24:31.739Z,70.42
2018-02-15T07:26:59.239Z,70.87
2018-02-15T07:29:26.721Z,70.44
2018-02-15T07:31:54.211Z,70.36
2018-02-15T07:34:21.667Z,69.83
2018-02-15T07:36:49.158Z,69.86
2018-02-15T07:39:16.695Z,69.72
2018-02-15T07:41:44.172Z,69.51
2018-02-15T07:44:11.676Z,69.47
2018-02-15T07:46:40.423Z,69.23
2018-02-15T07:49:07.903Z,69.68
2018-02-15T07:51:35.386Z,69.35
2018-02-15T07:54:03.063Z,68.64
2018-02-15T07:56:30.615Z,68.63
2018-02-15T07:58:58.096Z,67.87
2018-02-15T08:01:25.593Z,68.31
2018-02-15T08:03:53.068Z,67.12
2018-02-15T08:06:20.532Z,67.45
2018-02-15T08:08:48.116Z,67.64
2018-02-15T08:11:15.619Z,67.41
2018-02-15T08:13:43.120Z,66.43
2018-02-15T08:16:10.595Z,64.73
2018-02-15T08:18:38.059Z,65.51
2018-02-15T08:21:05.561Z,65.47
2018-02-15T08:23:33.042Z,64.92
2018-02-15T08:26:00.522Z,64.02
2018-02-15T08:28:27.972Z,64.40
2018-02-15T08:30:55.426Z,64.54
2018-02-15T08:33:22.912Z,64.58
2018-02-15T08:35:50.413Z,63.32
2018-02-15T08:38:17.869Z,61.98
2018-02-15T08:40:45.354Z,62.25
2018-02-15T08:43:12.819Z,61.70
2018-02-15T08:45:40.287Z,61.29
2018-02-15T08:48:07.779Z,61.52
2018-02-15T08:50:35.300Z,60.04
2018-02-15T08:53:02.792Z,60.27
2018-02-15T08:55:30.271Z,60.74
2018-02-15T08:57:57.755Z,60.14
2018-02-15T09:00:25.345Z,59.89
2018-02-15T09:15:50.960Z,57.68
2018-02-15T09:18:18.442Z,58.65
2018-02-15T09:20:46.039Z,57.85
2018-02-15T09:23:13.515Z,57.87
2018-02-15T09:25:41.005Z,58.75
2018-02-15T09:28:08.487Z,58.56
2018-02-15T09:30:36.022Z,58.43
2018-02-15T09:33:03.567Z,58.11
2018-02-15T09:35:31.056Z,58.02
2018-02-15T09:37:58.507Z,58.11
2018-02-15T09:40:25.979Z,58.08
2018-02-15T09:42:53.431Z,58.24
2018-02-15T09:45:20.883Z,58.96
2018-02-15T09:47:48.378Z,58.31
2018-02-15T09:50:15.854Z,57.88
2018-02-15T09:52:43.415Z,57.54
2018-02-15T09:55:10.878Z,56.49
2018-02-15T09:57:38.360Z,56.78
2018-02-15T10:00:05.904Z,56.39
2018-02-15T10:02:33.355Z,57.05
2018-02-15T10:05:00.826Z,56.83
2018-02-15T10:07:28.354Z,56.13
2018-02-15T10:09:55.817Z,55.93
2018-02-15T10:12:23.293Z,55.46
2018-02-15T10:14:51.538Z,55.03
2018-02-15T10:17:19.119Z,53.88
2018-02-15T10:19:46.564Z,52.87
2018-02-15T10:22:14.041Z,52.36
2018-02-15T10:24:41.555Z,52.52
2018-02-15T10:27:09.039Z,52.57
2018-02-15T10:29:36.519Z,52.38
2018-02-15T10:32:04.002Z,52.26
2018-02-15T10:34:31.518Z,51.07
2018-02-15T10:36:58.979Z,50.59
2018-02-15T10:39:26.619Z,50.88
2018-02-15T10:41:54.094Z,49.90
2018-02-15T10:44:21.546Z,47.65
2018-02-15T10:46:49.034Z,49.39
2018-02-15T10:49:16.481Z,49.75
2018-02-15T10:51:43.967Z,50.33
2018-02-15T10:54:11.451Z,50.05
2018-02-15T10:56:38.983Z,49.82
2018-02-15T10:59:06.530Z,49.31
2018-02-15T11:01:39.545Z,48.84
2018-02-15T11:04:12.498Z,48.69
2018-02-15T11:06:39.984Z,48.68
2018-02-15T11:09:07.450Z,48.49
2018-02-15T11:11:34.902Z,48.27
2018-02-15T11:14:02.394Z,48.01
2018-02-15T11:16:29.888Z,47.71
2018-02-15T11:18:57.396Z,47.77
2018-02-15T11:21:24.926Z,48.31
2018-02-15T11:23:52.412Z,47.80
2018-02-15T11:26:19.897Z,47.60
2018-02-15T11:28:47.494Z,47.42
2018-02-15T11:31:14.954Z,47.36
2018-02-15T11:33:42.411Z,47.15
2018-02-15T11:36:09.911Z,46.97
2018-02-15T11:38:37.363Z,46.12
2018-02-15T11:41:04.876Z,46.08
2018-02-15T11:43:32.414Z,46.44
2018-02-15T11:45:59.911Z,46.75
2018-02-15T11:48:27.402Z,46.21
2018-02-15T11:50:54.926Z,46.17
2018-02-15T11:53:22.384Z,46.67
2018-02-15T11:55:49.888Z,47.27
2018-02-15T11:58:17.399Z,46.83
2018-02-15T12:00:44.893Z,45.82
2018-02-15T12:03:13.025Z,45.82
2018-02-15T12:05:40.479Z,45.75
2018-02-15T12:08:08.017Z,45.43
2018-02-15T12:10:35.498Z,44.88
2018-02-15T12:13:02.980Z,45.07
2018-02-15T12:15:30.505Z,44.85
2018-02-15T12:17:57.989Z,45.27
2018-02-15T12:20:25.448Z,45.14
2018-02-15T12:22:52.935Z,44.75
2018-02-15T12:25:20.399Z,44.23
2018-02-15T12:27:47.909Z,43.92
2018-02-15T12:30:15.394Z,43.81
2018-02-15T12:32:42.860Z,44.47
2018-02-15T12:35:10.364Z,44.54
2018-02-15T12:37:37.840Z,44.60
2018-02-15T12:40:05.311Z,45.01
2018-02-15T12:42:32.842Z,45.04
2018-02-15T12:45:00.358Z,44.79
2018-02-15T12:47:27.840Z,45.42
2018-02-15T12:49:55.319Z,44.62
2018-02-15T12:52:22.788Z,44.16
2018-02-15T12:54:50.270Z,43.24
2018-02-15T12:57:17.782Z,43.16
2018-02-15T12:59:45.251Z,43.16
2018-02-15T13:02:12.735Z,43.11
2018-02-15T13:04:40.296Z,43.33
2018-02-15T13:07:07.806Z,43.55
2018-02-15T13:09:35.332Z,43.35
2018-02-15T13:12:02.840Z,43.26
2018-02-15T13:14:30.316Z,42.46
2018-02-15T13:16:57.833Z,42.63
2018-02-15T13:19:37.130Z,42.93
2018-02-15T13:22:07.241Z,42.84
2018-02-15T13:24:34.719Z,42.29
2018-02-15T13:27:02.273Z,42.58
2018-02-15T13:29:29.764Z,42.79
2018-02-15T13:31:57.275Z,42.77
2018-02-15T13:34:24.787Z,42.78
2018-02-15T13:36:52.321Z,43.00
2018-02-15T13:39:19.888Z,42.85
2018-02-15T13:41:47.377Z,42.46
2018-02-15T13:44:14.871Z,42.33
2018-02-15T13:46:42.400Z,41.75
2018-02-15T13:49:09.868Z,42.56
2018-02-15T13:51:37.360Z,42.70
2018-02-15T13:54:04.847Z,42.83
2018-02-15T13:56:32.340Z,42.13
2018-02-15T13:58:59.860Z,41.41
2018-02-15T14:01:27.424Z,41.54
2018-02-15T14:03:54.900Z,41.90
2018-02-15T14:06:23.303Z,42.50
2018-02-15T14:08:50.811Z,42.56
2018-02-15T14:11:18.316Z,43.17
2018-02-15T14:13:45.803Z,43.79
2018-02-15T14:16:13.319Z,43.58
2018-02-15T14:18:40.804Z,43.95
2018-02-15T14:21:08.279Z,44.07
2018-02-15T14:23:35.765Z,44.23
2018-02-15T14:26:03.243Z,43.52
2018-02-15T14:28:30.706Z,42.85
2018-02-15T14:30:58.208Z,43.08
2018-02-15T14:33:25.698Z,43.12
2018-02-15T14:35:53.183Z,43.07
2018-02-15T14:38:20.708Z,42.96
2018-02-15T14:40:48.269Z,43.25
2018-02-15T14:43:15.727Z,43.17
2018-02-15T14:45:43.219Z,43.56
2018-02-15T14:48:10.687Z,44.02
2018-02-15T14:50:38.177Z,44.04
2018-02-15T14:53:05.703Z,44.24
2018-02-15T14:55:33.183Z,44.52
2018-02-15T14:58:00.644Z,44.86
2018-02-15T15:00:28.146Z,45.11
2018-02-15T15:02:55.668Z,45.15
2018-02-15T15:05:23.137Z,45.39
2018-02-15T15:07:50.648Z,46.47
2018-02-15T15:10:18.200Z,47.03
2018-02-15T15:12:45.826Z,47.36
2018-02-15T15:15:14.364Z,48.13
2018-02-15T15:17:41.855Z,48.15
2018-02-15T15:20:09.355Z,48.89
2018-02-15T15:22:36.836Z,49.46
2018-02-15T15:25:04.358Z,49.77
2018-02-15T15:27:31.898Z,50.45
2018-02-15T15:29:59.387Z,50.81
2018-02-15T15:32:26.868Z,51.05
2018-02-15T15:34:54.348Z,51.07
2018-02-15T15:37:21.830Z,52.05
2018-02-15T15:39:49.317Z,52.17
2018-02-15T15:42:16.827Z,52.79
2018-02-15T15:44:44.337Z,53.14
2018-02-15T15:47:11.798Z,53.64
2018-02-15T15:49:39.286Z,54.28
2018-02-15T15:52:06.788Z,54.76
2018-02-15T15:54:34.262Z,55.33
2018-02-15T15:57:01.737Z,55.98
2018-02-15T15:59:29.227Z,56.29
2018-02-15T16:01:56.694Z,56.57
2018-02-15T16:04:24.176Z,57.11
2018-02-15T16:06:51.660Z,57.69
2018-02-15T16:09:19.498Z,57.95
2018-02-15T16:11:47.030Z,58.25
2018-02-15T16:14:14.504Z,58.71
2018-02-15T16:16:41.988Z,58.83
2018-02-15T16:19:09.489Z,59.26
2018-02-15T16:21:36.992Z,59.58
2018-02-15T16:24:04.461Z,59.85
2018-02-15T16:26:31.959Z,60.51
2018-02-15T16:28:59.423Z,60.31
2018-02-15T16:31:26.907Z,60.74
2018-02-15T16:33:54.483Z,60.96
2018-02-15T16:36:21.961Z,61.27
2018-02-15T16:38:49.474Z,61.60
2018-02-15T16:41:16.951Z,61.36
2018-02-15T16:43:44.404Z,61.52
2018-02-15T16:46:11.912Z,61.43
2018-02-15T16:48:39.452Z,61.43
2018-02-15T16:51:06.989Z,61.74
2018-02-15T16:53:34.455Z,61.98
2018-02-15T16:56:01.941Z,61.92
2018-02-15T16:58:29.446Z,61.86
2018-02-15T17:00:56.929Z,62.02
2018-02-15T17:03:24.475Z,62.19
2018-02-15T17:05:51.996Z,62.56
2018-02-15T17:08:19.456Z,62.58
2018-02-15T17:10:46.929Z,62.79
2018-02-15T17:13:14.426Z,63.04
2018-02-15T17:15:41.894Z,63.11
2018-02-15T17:18:09.379Z,63.37
2018-02-15T17:20:36.852Z,63.38
2018-02-15T17:23:04.317Z,63.44
2018-02-15T17:25:31.790Z,63.54
2018-02-15T17:27:59.262Z,63.68
2018-02-15T17:30:26.731Z,63.39
2018-02-15T17:32:54.237Z,63.69
2018-02-15T17:35:21.718Z,63.87
2018-02-15T17:37:49.173Z,63.85
2018-02-15T17:40:16.635Z,63.41
2018-02-15T17:42:44.432Z,63.19
2018-02-15T17:45:11.893Z,63.25
2018-02-15T17:47:39.367Z,62.99
2018-02-15T17:50:06.824Z,63.03
2018-02-15T17:52:34.457Z,63.15
2018-02-15T17:55:01.941Z,63.37
2018-02-15T17:57:29.422Z,63.52
2018-02-15T17:59:56.895Z,63.34
2018-02-15T18:02:24.359Z,63.82
2018-02-15T18:04:51.816Z,64.02
2018-02-15T18:07:19.279Z,63.67
2018-02-15T18:09:46.780Z,63.73
2018-02-15T18:12:14.282Z,63.48
2018-02-15T18:14:41.731Z,63.42
2018-02-15T18:17:09.232Z,63.69
2018-02-15T18:19:36.691Z,63.91
2018-02-15T18:22:04.176Z,64.25
2018-02-15T18:24:31.681Z,64.30
2018-02-15T18:26:59.139Z,63.49
2018-02-15T18:29:26.607Z,63.36
2018-02-15T18:31:54.078Z,63.50
2018-02-15T18:34:21.544Z,63.62
2018-02-15T18:36:49.016Z,63.25
2018-02-15T18:39:16.616Z,63.81
2018-02-15T18:41:44.085Z,64.30
2018-02-15T18:44:11.554Z,64.43
2018-02-15T18:46:39.076Z,64.61
2018-02-15T18:49:06.527Z,63.64
2018-02-15T18:51:33.992Z,64.59
2018-02-15T18:54:01.451Z,64.04
2018-02-15T18:56:28.919Z,64.56
2018-02-15T18:58:56.394Z,64.85
2018-02-15T19:01:23.894Z,65.18
2018-02-15T19:03:51.352Z,65.23
2018-02-15T19:06:18.815Z,65.26
2018-02-15T19:08:46.331Z,65.57
2018-02-15T19:11:13.784Z,65.62
2018-02-15T19:13:41.265Z,65.91
2018-02-15T19:16:08.774Z,65.84
2018-02-15T19:18:36.361Z,65.55
2018-02-15T19:21:03.824Z,65.39
2018-02-15T19:23:31.310Z,65.22
2018-02-15T19:25:58.773Z,65.54
2018-02-15T19:28:26.263Z,65.72
2018-02-15T19:30:53.730Z,65.05
2018-02-15T19:33:21.216Z,64.73
2018-02-15T19:35:48.681Z,64.57
2018-02-15T19:38:16.147Z,64.29
2018-02-15T19:40:43.707Z,64.43
2018-02-15T19:43:11.241Z,64.75
2018-02-15T19:45:38.836Z,65.09
2018-02-15T19:48:06.308Z,65.18
2018-02-15T19:50:33.802Z,65.44
2018-02-15T19:53:01.273Z,65.69
2018-02-15T19:55:28.808Z,65.96
2018-02-15T19:57:56.973Z,66.26
2018-02-15T20:00:24.724Z,66.37
2018-02-15T20:02:52.312Z,66.40
2018-02-15T20:05:19.778Z,66.64
2018-02-15T20:07:47.251Z,65.58
2018-02-15T20:10:14.776Z,66.32
2018-02-15T20:12:42.366Z,66.46
2018-02-15T20:15:09.912Z,66.99
2018-02-15T20:17:37.360Z,67.27
2018-02-15T20:20:10.416Z,67.34
2018-02-15T20:22:38.925Z,67.21
2018-02-15T20:25:06.459Z,67.12
2018-02-15T20:27:39.647Z,67.24
2018-02-15T20:30:07.222Z,67.02
2018-02-15T20:32:34.801Z,67.04
2018-02-15T20:35:02.351Z,66.72
2018-02-15T20:37:35.421Z,66.94
2018-02-15T20:40:08.695Z,67.15
2018-02-15T20:42:36.275Z,67.26
2018-02-15T20:45:03.834Z,67.36
2018-02-15T20:47:31.418Z,67.18
2018-02-15T20:50:04.406Z,66.96
2018-02-15T20:52:37.415Z,66.58
2018-02-15T20:55:10.591Z,66.56
2018-02-15T20:57:38.068Z,66.86
2018-02-15T21:00:05.522Z,66.98
2018-02-15T21:02:32.971Z,66.55
2018-02-15T21:05:00.446Z,66.39
2018-02-15T21:07:27.911Z,66.35
2018-02-15T21:09:55.403Z,66.32
2018-02-15T21:12:22.893Z,66.49
2018-02-15T21:14:50.388Z,66.99
2018-02-15T21:17:17.876Z,66.57
2018-02-15T21:19:45.323Z,66.77
2018-02-15T21:22:12.794Z,66.61
2018-02-15T21:24:40.397Z,66.64
2018-02-15T21:27:07.865Z,66.56
2018-02-15T21:29:35.331Z,66.81
2018-02-15T21:32:02.819Z,66.73
2018-02-15T21:34:30.279Z,66.54
2018-02-15T21:36:58.553Z,66.79
2018-02-15T21:39:26.122Z,66.81
2018-02-15T21:41:53.597Z,67.03
2018-02-15T21:44:21.067Z,66.63
2018-02-15T21:46:48.586Z,66.45
2018-02-15T21:49:16.082Z,66.68
2018-02-15T21:51:43.577Z,66.76
2018-02-15T21:54:11.036Z,66.63
2018-02-15T21:56:38.522Z,66.53
2018-02-15T21:59:05.991Z,66.85
2018-02-15T22:01:33.465Z,67.13
2018-02-15T22:04:00.956Z,67.08
2018-02-15T22:06:28.602Z,67.08
2018-02-15T22:08:56.079Z,67.16
2018-02-15T22:11:23.620Z,67.23
2018-02-15T22:13:51.094Z,67.27
2018-02-15T22:16:18.580Z,67.29
2018-02-15T22:18:46.044Z,67.36
2018-02-15T22:21:13.521Z,67.48
2018-02-15T22:23:40.991Z,67.25
2018-02-15T22:26:08.458Z,67.23
2018-02-15T22:28:35.949Z,67.22
2018-02-15T22:31:03.395Z,67.55
2018-02-15T22:33:30.886Z,67.26
2018-02-15T22:35:58.373Z,67.35
2018-02-15T22:38:25.892Z,67.60
2018-02-15T22:40:53.371Z,67.73
2018-02-15T22:43:20.825Z,67.89
2018-02-15T22:45:48.295Z,67.94
2018-02-15T22:48:15.751Z,68.18
2018-02-15T22:50:43.446Z,68.29
2018-02-15T22:53:10.912Z,68.43
2018-02-15T22:55:38.387Z,67.83
2018-02-15T22:58:05.873Z,67.56
2018-02-15T23:00:33.335Z,67.43
2018-02-15T23:03:00.798Z,67.45
2018-02-15T23:05:28.332Z,67.81
2018-02-15T23:07:55.803Z,67.93
2018-02-15T23:10:23.282Z,68.01
2018-02-15T23:12:50.752Z,67.76
2018-02-15T23:15:18.827Z,67.65
2018-02-15T23:17:46.291Z,68.02
2018-02-15T23:20:13.762Z,68.42
2018-02-15T23:22:41.231Z,68.65
2018-02-15T23:25:08.699Z,68.78
2018-02-15T23:27:36.155Z,68.21
2018-02-15T23:30:03.723Z,68.10
2018-02-15T23:32:31.174Z,67.63
2018-02-15T23:34:58.659Z,67.06
2018-02-15T23:37:26.123Z,66.88
2018-02-15T23:39:53.612Z,66.86
2018-02-15T23:42:21.123Z,66.07
2018-02-15T23:44:48.767Z,65.86
2018-02-15T23:47:16.222Z,65.27
2018-02-15T23:49:43.682Z,65.18
2018-02-15T23:52:11.276Z,65.42
2018-02-15T23:54:38.762Z,65.45
2018-02-15T23:57:06.223Z,65.77
2018-02-15T23:59:33.687Z,65.85
